createdAt,value
2022-09-07T00:00:40.015Z,2.50
2022-09-07T00:03:07.242Z,2.42
2022-09-07T00:05:34.258Z,2.60
2022-09-07T00:08:01.118Z,2.40
2022-09-07T00:10:28.974Z,2.53
2022-09-07T00:12:55.514Z,2.58
2022-09-07T00:15:22.188Z,2.85
2022-09-07T00:17:48.752Z,2.85
2022-09-07T00:20:15.531Z,2.75
2022-09-07T00:22:42.232Z,2.70
2022-09-07T00:25:09.068Z,2.70
2022-09-07T00:27:35.647Z,2.40
2022-09-07T00:30:02.271Z,2.65
2022-09-07T00:32:28.865Z,2.58
2022-09-07T00:34:55.432Z,2.55
2022-09-07T00:37:22.136Z,3.03
2022-09-07T00:39:49.761Z,3.22
2022-09-07T00:42:18.839Z,2.40
2022-09-07T00:45:10.422Z,2.58
2022-09-07T00:47:42.552Z,2.88
2022-09-07T00:50:24.335Z,3.00
2022-09-07T00:52:56.853Z,2.67
2022-09-07T00:55:23.748Z,2.58
2022-09-07T00:57:54.736Z,3.30
2022-09-07T01:00:22.423Z,2.70
2022-09-07T01:02:52.198Z,2.80
2022-09-07T01:05:45.593Z,2.47
2022-09-07T01:08:13.349Z,3.05
2022-09-07T01:10:40.508Z,2.83
2022-09-07T01:13:07.153Z,2.80
2022-09-07T01:15:46.261Z,2.80
2022-09-07T01:18:27.153Z,3.20
2022-09-07T01:21:21.087Z,2.70
2022-09-07T01:24:12.572Z,2.30
2022-09-07T01:26:45.387Z,3.10
2022-09-07T01:29:23.687Z,2.95
2022-09-07T01:31:50.174Z,2.55
2022-09-07T01:34:26.473Z,2.72
2022-09-07T01:36:55.988Z,2.92
2022-09-07T01:39:29.692Z,2.72
2022-09-07T01:42:06.170Z,2.58
2022-09-07T01:44:58.421Z,2.90
2022-09-07T01:47:46.102Z,2.28
2022-09-07T01:50:19.277Z,2.50
2022-09-07T01:53:17.415Z,2.40
2022-09-07T01:55:50.329Z,2.55
2022-09-07T01:58:35.299Z,2.45
2022-09-07T02:01:09.676Z,2.30
2022-09-07T02:03:40.159Z,2.17
2022-09-07T02:06:25.045Z,2.30
2022-09-07T02:09:20.551Z,2.10
2022-09-07T02:11:50.209Z,2.35
2022-09-07T02:14:34.215Z,2.13
2022-09-07T02:17:06.895Z,2.33
2022-09-07T02:19:40.967Z,2.20
2022-09-07T02:22:14.014Z,2.03
2022-09-07T02:24:46.945Z,1.90
2022-09-07T02:27:34.414Z,2.33
2022-09-07T02:30:01.046Z,2.20
2022-09-07T02:32:27.671Z,2.40
2022-09-07T02:34:54.219Z,1.90
2022-09-07T02:37:21.358Z,2.42
2022-09-07T02:39:49.404Z,2.50
2022-09-07T02:42:16.153Z,2.45
2022-09-07T02:44:45.571Z,2.28
2022-09-07T02:47:20.973Z,2.35
2022-09-07T02:50:15.351Z,2.20
2022-09-07T02:52:50.659Z,2.58
2022-09-07T02:55:54.335Z,2.20
2022-09-07T02:58:29.153Z,2.10
2022-09-07T03:01:01.686Z,2.10
2022-09-07T03:03:53.671Z,2.40
2022-09-07T03:06:30.957Z,2.30
2022-09-07T03:09:01.919Z,2.17
2022-09-07T03:11:29.397Z,2.03
2022-09-07T03:14:20.819Z,2.08
2022-09-07T03:16:49.905Z,2.33
2022-09-07T03:19:16.788Z,2.40
2022-09-07T03:21:43.469Z,2.75
2022-09-07T03:24:10.619Z,2.83
2022-09-07T03:26:41.820Z,2.67
2022-09-07T03:29:08.405Z,2.78
2022-09-07T03:31:35.971Z,2.53
2022-09-07T03:34:02.953Z,2.80
2022-09-07T03:36:30.592Z,3.17
2022-09-07T03:38:59.468Z,2.70
2022-09-07T03:41:27.676Z,2.67
2022-09-07T03:43:54.479Z,2.70
2022-09-07T03:46:21.544Z,3.20
2022-09-07T03:48:49.226Z,3.05
2022-09-07T03:51:18.267Z,2.88
2022-09-07T03:53:46.599Z,2.90
2022-09-07T03:56:13.135Z,3.05
2022-09-07T03:58:39.907Z,3.10
2022-09-07T04:01:09.600Z,3.25
2022-09-07T04:03:36.876Z,3.10
2022-09-07T04:06:04.263Z,2.83
2022-09-07T04:08:34.714Z,3.00
2022-09-07T04:11:04.944Z,3.30
2022-09-07T04:13:33.971Z,3.20
2022-09-07T04:16:00.664Z,3.08
2022-09-07T04:18:27.328Z,2.90
2022-09-07T04:20:58.812Z,2.85
2022-09-07T04:23:25.434Z,2.50
2022-09-07T04:25:52.678Z,2.95
2022-09-07T04:28:20.801Z,2.35
2022-09-07T04:30:47.917Z,2.53
2022-09-07T04:33:14.940Z,2.80
2022-09-07T04:35:42.911Z,2.80
2022-09-07T04:38:14.641Z,2.50
2022-09-07T04:40:41.455Z,2.30
2022-09-07T04:43:09.586Z,2.80
2022-09-07T04:45:37.513Z,2.85
2022-09-07T04:48:05.245Z,2.78
2022-09-07T04:50:32.618Z,3.08
2022-09-07T04:52:59.179Z,3.47
2022-09-07T04:55:25.770Z,3.00
2022-09-07T04:57:52.387Z,2.90
2022-09-07T05:00:19.542Z,3.30
2022-09-07T05:02:46.126Z,2.92
2022-09-07T05:05:12.830Z,2.60
2022-09-07T05:07:39.417Z,2.70
2022-09-07T05:10:06.223Z,2.85
2022-09-07T05:12:32.790Z,3.28
2022-09-07T05:14:59.351Z,3.60
2022-09-07T05:17:25.934Z,3.53
2022-09-07T05:19:52.558Z,3.03
2022-09-07T05:22:19.329Z,3.30
2022-09-07T05:24:47.731Z,3.17
2022-09-07T05:27:14.299Z,3.50
2022-09-07T05:32:27.452Z,3.03
2022-09-07T05:34:53.997Z,2.60
2022-09-07T05:37:20.710Z,3.60
2022-09-07T05:39:48.206Z,3.10
2022-09-07T05:42:14.993Z,2.97
2022-09-07T05:47:13.191Z,3.00
2022-09-07T05:49:40.087Z,3.22
2022-09-07T05:52:06.948Z,3.08
2022-09-07T05:54:33.612Z,2.75
2022-09-07T05:57:00.179Z,2.70
2022-09-07T05:59:26.742Z,2.78
2022-09-07T06:01:53.502Z,2.55
2022-09-07T06:04:20.106Z,2.97
2022-09-07T06:06:59.355Z,2.80
2022-09-07T06:09:31.469Z,2.67
2022-09-07T06:11:58.086Z,3.10
2022-09-07T06:14:25.008Z,2.85
2022-09-07T06:16:51.609Z,3.08
2022-09-07T06:19:18.247Z,3.00
2022-09-07T06:21:44.805Z,3.00
2022-09-07T06:24:11.464Z,2.75
2022-09-07T06:26:38.036Z,3.03
2022-09-07T06:29:04.778Z,3.28
2022-09-07T06:31:31.971Z,3.33
2022-09-07T06:33:58.898Z,2.90
2022-09-07T06:36:29.896Z,3.00
2022-09-07T06:38:59.131Z,3.05
2022-09-07T06:44:15.310Z,3.35
2022-09-07T06:49:28.651Z,3.03
2022-09-07T06:51:55.472Z,3.03
2022-09-07T06:57:09.429Z,2.80
2022-09-07T06:59:37.180Z,3.08
2022-09-07T07:02:05.350Z,3.20
2022-09-07T07:04:35.129Z,3.08
2022-09-07T07:07:04.599Z,2.60
2022-09-07T07:09:31.136Z,3.30
2022-09-07T07:11:57.675Z,2.70
2022-09-07T07:14:24.208Z,3.00
2022-09-07T07:16:50.809Z,2.92
2022-09-07T07:19:17.469Z,3.20
2022-09-07T07:22:07.973Z,3.97
2022-09-07T07:24:30.651Z,2.88
2022-09-07T07:26:57.539Z,3.03
2022-09-07T07:29:27.960Z,3.13
2022-09-07T07:31:54.913Z,2.70
2022-09-07T07:34:21.608Z,2.80
2022-09-07T07:36:48.260Z,2.63
2022-09-07T07:42:03.131Z,2.70
2022-09-07T07:44:31.534Z,3.05
2022-09-07T07:46:58.247Z,3.25
2022-09-07T07:49:24.918Z,2.85
2022-09-07T07:54:41.457Z,2.70
2022-09-07T07:57:08.596Z,3.30
2022-09-07T07:59:35.681Z,3.13
2022-09-07T08:02:04.837Z,4.43
2022-09-07T08:04:35.512Z,3.38
2022-09-07T08:07:08.638Z,4.13
2022-09-07T08:09:36.937Z,4.00
2022-09-07T08:12:03.862Z,3.92
2022-09-07T08:14:30.351Z,4.00
2022-09-07T08:16:56.932Z,3.67
2022-09-07T08:19:23.403Z,3.72
2022-09-07T08:21:49.865Z,3.47
2022-09-07T08:24:16.343Z,3.80
2022-09-07T08:26:42.790Z,4.13
2022-09-07T08:29:09.264Z,6.40
2022-09-07T08:31:35.783Z,5.05
2022-09-07T08:34:02.261Z,5.72
2022-09-07T08:36:31.686Z,6.20
2022-09-07T08:38:58.135Z,5.32
2022-09-07T08:42:03.060Z,4.93
2022-09-07T08:44:54.208Z,5.47
2022-09-07T08:47:45.718Z,4.80
2022-09-07T08:50:39.667Z,6.43
2022-09-07T08:53:13.961Z,4.68
2022-09-07T08:55:51.007Z,6.18
2022-09-07T08:58:55.576Z,4.78
2022-09-07T09:01:32.285Z,6.25
2022-09-07T09:07:10.708Z,6.75
2022-09-07T09:09:52.264Z,8.05
2022-09-07T09:12:24.696Z,6.97
2022-09-07T09:14:54.124Z,8.65
2022-09-07T09:17:32.319Z,11.07
2022-09-07T09:20:24.010Z,7.68
2022-09-07T09:23:17.340Z,6.85
2022-09-07T09:26:00.483Z,9.88
2022-09-07T09:28:28.943Z,8.07
2022-09-07T09:30:59.602Z,8.32
2022-09-07T09:33:28.018Z,6.60
2022-09-07T09:35:57.356Z,10.65
2022-09-07T09:38:34.425Z,9.43
2022-09-07T09:41:07.688Z,7.43
2022-09-07T09:43:40.845Z,8.05
2022-09-07T09:46:27.263Z,7.82
2022-09-07T09:49:00.126Z,8.07
2022-09-07T09:54:36.265Z,6.90
2022-09-07T09:57:03.699Z,7.47
2022-09-07T10:05:38.592Z,8.27
2022-09-07T10:08:16.379Z,10.15
2022-09-07T10:10:58.347Z,8.95
2022-09-07T10:13:46.913Z,7.00
2022-09-07T10:16:14.611Z,8.05
2022-09-07T10:18:58.185Z,6.93
2022-09-07T10:21:30.526Z,6.25
2022-09-07T10:24:05.724Z,9.15
2022-09-07T10:26:39.767Z,7.05
2022-09-07T10:29:14.308Z,7.80
2022-09-07T10:32:13.756Z,7.13
2022-09-07T10:34:58.089Z,7.10
2022-09-07T10:37:57.168Z,7.63
2022-09-07T10:40:45.301Z,7.22
2022-09-07T10:43:21.070Z,6.57
2022-09-07T10:45:54.195Z,7.53
2022-09-07T10:48:29.718Z,8.68
2022-09-07T10:51:05.043Z,6.20
2022-09-07T10:56:47.483Z,6.30
2022-09-07T11:00:07.452Z,7.47
2022-09-07T11:05:56.832Z,6.30
2022-09-07T11:09:15.703Z,7.75
2022-09-07T11:14:20.173Z,6.13
2022-09-07T11:17:01.112Z,7.15
2022-09-07T11:19:35.828Z,7.53
2022-09-07T11:22:20.152Z,7.07
2022-09-07T11:27:47.372Z,7.25
2022-09-07T11:30:24.816Z,6.55
2022-09-07T11:33:18.432Z,6.75
2022-09-07T11:36:02.214Z,6.35
2022-09-07T11:38:34.541Z,9.23
2022-09-07T11:41:21.155Z,7.05
2022-09-07T11:44:13.516Z,6.53
2022-09-07T11:46:53.512Z,5.80
2022-09-07T11:49:26.576Z,5.93
2022-09-07T11:52:05.043Z,5.80
2022-09-07T11:54:41.329Z,5.32
2022-09-07T11:57:10.504Z,6.18
2022-09-07T11:59:48.003Z,5.30
2022-09-07T12:02:58.410Z,5.38
2022-09-07T12:06:14.914Z,5.68
2022-09-07T12:08:56.505Z,5.15
2022-09-07T12:11:29.085Z,5.00
2022-09-07T12:14:20.742Z,5.20
2022-09-07T12:17:35.056Z,4.95
2022-09-07T12:20:11.877Z,5.05
2022-09-07T12:22:55.801Z,4.55
2022-09-07T12:25:22.446Z,4.78
2022-09-07T12:27:49.383Z,4.97
2022-09-07T12:30:15.775Z,4.43
2022-09-07T12:32:57.059Z,4.28
2022-09-07T12:35:27.885Z,4.88
2022-09-07T12:38:14.929Z,4.00
2022-09-07T12:40:58.734Z,4.10
2022-09-07T12:43:27.960Z,4.53
2022-09-07T12:45:56.678Z,3.85
2022-09-07T12:48:38.557Z,4.57
2022-09-07T12:51:10.124Z,4.32
2022-09-07T12:53:36.505Z,3.92
2022-09-07T12:56:16.629Z,3.83
2022-09-07T12:58:43.424Z,4.00
2022-09-07T13:01:22.074Z,3.55
2022-09-07T13:04:06.025Z,3.95
2022-09-07T13:07:06.086Z,4.72
2022-09-07T13:09:36.621Z,3.95
2022-09-07T13:12:57.649Z,4.00
2022-09-07T13:15:45.808Z,3.92
2022-09-07T13:18:27.371Z,4.15
2022-09-07T13:21:08.849Z,3.75
2022-09-07T13:26:08.640Z,5.22
2022-09-07T13:28:58.377Z,4.17
2022-09-07T13:31:43.497Z,4.57
2022-09-07T13:34:34.864Z,3.83
2022-09-07T13:37:03.248Z,4.18
2022-09-07T13:39:39.060Z,3.67
2022-09-07T13:42:06.547Z,3.80
2022-09-07T13:44:34.381Z,4.00
2022-09-07T13:47:24.967Z,3.63
2022-09-07T13:49:58.048Z,3.55
2022-09-07T13:52:38.220Z,3.13
2022-09-07T13:55:31.867Z,3.40
2022-09-07T13:58:22.188Z,3.42
2022-09-07T14:00:58.786Z,3.40
2022-09-07T14:03:28.337Z,3.20
2022-09-07T14:06:26.784Z,3.47
2022-09-07T14:09:02.177Z,3.65
2022-09-07T14:11:46.390Z,4.40
2022-09-07T14:14:33.239Z,4.60
2022-09-07T14:16:59.752Z,4.10
2022-09-07T14:19:45.238Z,5.60
2022-09-07T14:22:15.893Z,4.63
2022-09-07T14:24:51.262Z,3.95
2022-09-07T14:27:25.324Z,4.50
2022-09-07T14:29:52.741Z,4.00
2022-09-07T14:32:24.070Z,3.83
2022-09-07T14:37:21.321Z,3.65
2022-09-07T14:39:49.423Z,3.50
2022-09-07T14:42:25.093Z,3.80
2022-09-07T14:45:23.589Z,3.63
2022-09-07T14:47:52.754Z,3.90
2022-09-07T14:50:21.003Z,4.10
2022-09-07T14:55:42.003Z,3.53
2022-09-07T14:58:14.230Z,3.00
2022-09-07T15:00:41.000Z,3.40
2022-09-07T15:03:31.716Z,3.38
2022-09-07T15:06:02.965Z,3.83
2022-09-07T15:08:43.640Z,4.72
2022-09-07T15:11:34.517Z,7.88
2022-09-07T15:14:08.712Z,3.60
2022-09-07T15:16:38.986Z,4.05
2022-09-07T15:19:18.531Z,4.50
2022-09-07T15:21:45.602Z,3.83
2022-09-07T15:24:12.425Z,5.53
2022-09-07T15:27:04.286Z,4.05
2022-09-07T15:29:31.654Z,4.22
2022-09-07T15:32:03.814Z,3.33
2022-09-07T15:34:32.453Z,3.30
2022-09-07T15:37:01.056Z,3.42
2022-09-07T15:39:29.829Z,3.92
2022-09-07T15:41:57.015Z,3.38
2022-09-07T15:44:26.521Z,3.50
2022-09-07T15:49:45.991Z,3.35
2022-09-07T15:52:16.082Z,3.25
2022-09-07T15:54:43.473Z,3.55
2022-09-07T15:59:57.234Z,3.65
2022-09-07T16:05:10.705Z,3.90
2022-09-07T16:10:24.462Z,3.63
2022-09-07T16:15:47.834Z,3.33
2022-09-07T16:18:17.037Z,3.95
2022-09-07T16:20:44.360Z,3.10
2022-09-07T16:23:14.684Z,3.45
2022-09-07T16:25:43.381Z,3.70
2022-09-07T16:28:10.839Z,3.72
2022-09-07T16:30:40.867Z,3.20
2022-09-07T16:33:08.282Z,3.33
2022-09-07T16:35:34.920Z,3.13
2022-09-07T16:40:50.083Z,4.68
2022-09-07T16:43:16.866Z,3.50
2022-09-07T16:48:34.620Z,3.72
2022-09-07T16:51:02.998Z,3.65
2022-09-07T16:53:31.271Z,3.90
2022-09-07T16:56:09.635Z,3.60
2022-09-07T16:58:38.883Z,3.50
2022-09-07T17:01:07.247Z,3.63
2022-09-07T17:03:34.743Z,3.92
2022-09-07T17:06:01.808Z,4.28
2022-09-07T17:08:28.768Z,3.83
2022-09-07T17:11:03.610Z,3.67
2022-09-07T17:13:34.220Z,3.58
2022-09-07T17:16:05.591Z,4.53
2022-09-07T17:21:20.073Z,4.45
2022-09-07T17:23:54.220Z,5.10
2022-09-07T17:26:22.531Z,4.80
2022-09-07T17:28:50.795Z,4.45
2022-09-07T17:36:36.767Z,6.30
2022-09-07T17:39:19.679Z,6.85
2022-09-07T17:41:52.738Z,7.10
2022-09-07T17:44:19.703Z,8.30
2022-09-07T17:46:46.232Z,7.32
2022-09-07T17:49:14.432Z,7.93
2022-09-07T17:51:41.411Z,8.35
2022-09-07T17:54:12.791Z,5.60
2022-09-07T18:01:54.245Z,6.30
2022-09-07T18:04:21.137Z,8.57
2022-09-07T18:06:47.759Z,7.13
2022-09-07T18:09:14.341Z,8.23
2022-09-07T18:11:47.121Z,6.63
2022-09-07T18:14:15.280Z,6.50
2022-09-07T18:16:43.920Z,7.25
2022-09-07T18:19:11.960Z,6.28
2022-09-07T18:21:40.913Z,11.48
2022-09-07T18:24:13.556Z,8.35
2022-09-07T18:26:41.000Z,9.20
2022-09-07T18:29:18.920Z,7.45
2022-09-07T18:31:53.777Z,9.70
2022-09-07T18:34:20.680Z,6.97
2022-09-07T18:36:47.329Z,9.82
2022-09-07T18:39:13.751Z,15.60
2022-09-07T18:41:40.882Z,6.47
2022-09-07T18:45:27.258Z,4.97
2022-09-07T18:46:54.381Z,5.93
2022-09-07T18:49:20.882Z,6.18
2022-09-07T18:54:33.928Z,6.47
2022-09-07T18:57:00.487Z,6.20
2022-09-07T18:59:27.017Z,7.00
2022-09-07T19:01:54.148Z,6.38
2022-09-07T19:04:21.173Z,6.72
2022-09-07T19:06:48.020Z,5.75
2022-09-07T19:09:14.595Z,4.75
2022-09-07T19:11:42.200Z,4.75
2022-09-07T19:14:09.086Z,4.20
2022-09-07T19:16:36.342Z,4.25
2022-09-07T19:19:06.032Z,4.95
2022-09-07T19:21:37.059Z,4.50
2022-09-07T19:24:10.975Z,4.53
2022-09-07T19:26:40.531Z,4.22
2022-09-07T19:29:15.410Z,5.07
2022-09-07T19:31:44.900Z,4.80
2022-09-07T19:34:11.710Z,4.43
2022-09-07T19:36:39.095Z,4.63
2022-09-07T19:39:05.898Z,4.30
2022-09-07T19:41:34.090Z,5.00
2022-09-07T19:44:00.605Z,4.25
2022-09-07T19:46:27.258Z,3.97
2022-09-07T19:48:53.776Z,3.95
2022-09-07T19:51:20.350Z,4.18
2022-09-07T19:53:47.213Z,4.40
2022-09-07T19:56:21.716Z,4.78
2022-09-07T19:58:49.675Z,4.20
2022-09-07T20:01:19.489Z,4.25
2022-09-07T20:03:50.145Z,3.90
2022-09-07T20:06:18.466Z,4.40
2022-09-07T20:08:45.220Z,4.35
2022-09-07T20:11:14.635Z,5.15
2022-09-07T20:13:41.551Z,9.90
2022-09-07T20:16:11.361Z,5.40
2022-09-07T20:18:38.957Z,6.78
2022-09-07T20:21:06.914Z,6.57
2022-09-07T20:23:35.031Z,7.70
2022-09-07T20:26:04.158Z,5.20
2022-09-07T20:28:31.254Z,6.05
2022-09-07T20:30:57.960Z,5.82
2022-09-07T20:33:24.682Z,5.53
2022-09-07T20:35:51.524Z,5.07
2022-09-07T20:38:20.666Z,6.50
2022-09-07T20:40:51.595Z,5.05
2022-09-07T20:43:18.467Z,5.05
2022-09-07T20:45:44.987Z,4.82
2022-09-07T20:48:11.542Z,5.13
2022-09-07T20:50:38.123Z,4.38
2022-09-07T20:53:04.567Z,5.22
2022-09-07T20:55:31.082Z,5.70
2022-09-07T20:57:57.496Z,5.28
2022-09-07T21:00:24.990Z,5.53
2022-09-07T21:02:51.532Z,4.93
2022-09-07T21:05:18.124Z,4.72
2022-09-07T21:07:44.594Z,4.90
2022-09-07T21:10:11.174Z,4.72
2022-09-07T21:12:37.712Z,4.43
2022-09-07T21:15:04.519Z,4.40
2022-09-07T21:17:30.973Z,5.88
2022-09-07T21:19:57.399Z,6.32
2022-09-07T21:22:23.851Z,5.60
2022-09-07T21:24:50.275Z,5.55
2022-09-07T21:27:16.840Z,4.80
2022-09-07T21:29:43.273Z,5.18
2022-09-07T21:32:09.740Z,4.40
2022-09-07T21:34:36.176Z,5.82
2022-09-07T21:37:02.678Z,5.32
2022-09-07T21:39:29.396Z,5.40
2022-09-07T21:41:55.966Z,5.43
2022-09-07T21:44:22.506Z,4.57
2022-09-07T21:46:49.021Z,4.50
2022-09-07T21:49:15.479Z,4.70
2022-09-07T21:51:42.161Z,4.90
2022-09-07T21:54:08.747Z,4.57
2022-09-07T21:56:35.526Z,5.38
2022-09-07T21:59:02.644Z,5.38
2022-09-07T22:01:30.404Z,5.07
2022-09-07T22:04:21.071Z,5.70
2022-09-07T22:06:47.635Z,4.97
2022-09-07T22:09:14.152Z,5.28
2022-09-07T22:11:44.163Z,4.00
2022-09-07T22:14:13.503Z,4.88
2022-09-07T22:16:40.001Z,4.88
2022-09-07T22:19:06.674Z,4.93
2022-09-07T22:21:33.891Z,5.68
2022-09-07T22:24:03.124Z,5.80
2022-09-07T22:26:31.965Z,5.90
2022-09-07T22:28:58.771Z,5.18
2022-09-07T22:31:28.198Z,5.90
2022-09-07T22:33:56.750Z,5.65
2022-09-07T22:36:26.510Z,5.97
2022-09-07T22:38:55.062Z,5.65
2022-09-07T22:41:25.815Z,5.57
2022-09-07T22:43:52.290Z,6.28
2022-09-07T22:46:20.843Z,6.43
2022-09-07T22:48:47.733Z,6.57
2022-09-07T22:51:15.328Z,6.20
2022-09-07T22:53:43.654Z,7.35
2022-09-07T22:56:12.696Z,6.75
2022-09-07T22:58:39.464Z,6.60
2022-09-07T23:01:06.519Z,5.80
2022-09-07T23:03:34.772Z,7.07
2022-09-07T23:06:01.731Z,6.03
2022-09-07T23:08:28.274Z,6.30
2022-09-07T23:10:54.861Z,6.95
2022-09-07T23:13:22.170Z,6.57
2022-09-07T23:15:49.554Z,6.13
2022-09-07T23:18:18.230Z,6.22
2022-09-07T23:20:44.974Z,6.75
2022-09-07T23:23:12.096Z,6.72
2022-09-07T23:25:42.689Z,6.25
2022-09-07T23:28:12.209Z,6.30
2022-09-07T23:30:42.491Z,6.55
2022-09-07T23:33:08.954Z,6.75
2022-09-07T23:35:35.382Z,6.43
2022-09-07T23:38:01.968Z,6.25
2022-09-07T23:40:30.341Z,6.63
2022-09-07T23:42:57.216Z,6.80
2022-09-07T23:45:24.248Z,6.68
2022-09-07T23:47:50.999Z,6.32
2022-09-07T23:50:17.854Z,6.93
2022-09-07T23:52:44.411Z,6.00
2022-09-07T23:55:11.145Z,6.82
2022-09-07T23:57:38.630Z,6.65
